createdAt,value
2019-03-19T00:00:06.205Z,99.90
2019-03-19T00:02:45.817Z,99.90
2019-03-19T00:05:28.304Z,99.90
2019-03-19T00:08:05.790Z,99.90
2019-03-19T00:10:47.022Z,99.90
2019-03-19T00:13:28.418Z,99.90
2019-03-19T00:16:06.463Z,99.90
2019-03-19T00:18:44.009Z,99.90
2019-03-19T00:21:22.829Z,99.90
2019-03-19T00:23:59.546Z,99.90
2019-03-19T00:26:37.179Z,99.90
2019-03-19T00:29:16.419Z,99.90
2019-03-19T00:31:56.170Z,99.90
2019-03-19T00:34:34.304Z,99.90
2019-03-19T00:37:15.583Z,99.90
2019-03-19T00:39:52.560Z,99.90
2019-03-19T00:42:34.922Z,99.90
2019-03-19T00:45:22.281Z,99.90
2019-03-19T00:48:02.474Z,99.90
2019-03-19T00:50:40.348Z,99.90
2019-03-19T00:53:21.179Z,99.90
2019-03-19T00:56:03.322Z,99.90
2019-03-19T00:58:38.427Z,99.90
2019-03-19T01:01:16.324Z,99.90
2019-03-19T01:03:54.679Z,99.90
2019-03-19T01:06:32.352Z,99.90
2019-03-19T01:09:10.475Z,99.90
2019-03-19T01:11:48.582Z,99.90
2019-03-19T01:14:25.938Z,99.90
2019-03-19T01:17:04.741Z,99.90
2019-03-19T01:19:39.785Z,99.90
2019-03-19T01:22:16.985Z,99.90
2019-03-19T01:24:53.877Z,99.90
2019-03-19T01:27:30.764Z,99.90
2019-03-19T01:30:08.545Z,99.90
2019-03-19T01:32:47.819Z,99.90
2019-03-19T01:35:24.972Z,99.90
2019-03-19T01:38:06.761Z,99.90
2019-03-19T01:40:47.223Z,99.90
2019-03-19T01:43:28.490Z,99.90
2019-03-19T01:46:21.410Z,99.90
2019-03-19T01:49:00.557Z,99.90
2019-03-19T01:51:39.037Z,99.90
2019-03-19T01:54:19.463Z,99.90
2019-03-19T01:56:55.744Z,99.90
2019-03-19T01:59:33.563Z,99.90
2019-03-19T02:02:13.801Z,99.90
2019-03-19T02:04:51.843Z,99.90
2019-03-19T02:07:25.829Z,99.90
2019-03-19T02:10:03.693Z,99.90
2019-03-19T02:12:40.543Z,99.90
2019-03-19T02:15:16.376Z,99.90
2019-03-19T02:17:52.163Z,99.90
2019-03-19T02:20:28.479Z,99.90
2019-03-19T02:23:06.747Z,99.90
2019-03-19T02:25:48.210Z,99.90
2019-03-19T02:28:30.941Z,99.90
2019-03-19T02:31:11.496Z,99.90
2019-03-19T02:33:51.341Z,99.90
2019-03-19T02:36:31.704Z,99.90
2019-03-19T02:39:11.702Z,99.90
2019-03-19T02:41:55.596Z,99.90
2019-03-19T02:44:36.515Z,99.90
2019-03-19T02:47:27.649Z,99.90
2019-03-19T02:50:10.326Z,99.90
2019-03-19T02:52:52.215Z,99.90
2019-03-19T02:55:32.349Z,99.90
2019-03-19T02:58:08.742Z,99.90
2019-03-19T03:00:50.886Z,99.90
2019-03-19T03:03:30.885Z,99.90
2019-03-19T03:06:10.444Z,99.90
2019-03-19T03:08:47.970Z,99.90
2019-03-19T03:11:24.392Z,99.90
2019-03-19T03:14:01.477Z,99.90
2019-03-19T03:16:37.780Z,99.90
2019-03-19T03:19:18.379Z,99.90
2019-03-19T03:21:55.279Z,99.90
2019-03-19T03:24:34.098Z,99.90
2019-03-19T03:27:11.632Z,99.90
2019-03-19T03:29:52.862Z,99.90
2019-03-19T03:32:32.026Z,99.90
2019-03-19T03:35:18.224Z,99.90
2019-03-19T03:38:01.240Z,99.90
2019-03-19T03:40:41.825Z,99.90
2019-03-19T03:43:25.236Z,99.90
2019-03-19T03:46:02.555Z,99.90
2019-03-19T03:48:46.959Z,99.90
2019-03-19T03:51:29.924Z,99.90
2019-03-19T03:54:11.867Z,99.90
2019-03-19T03:57:01.164Z,99.90
2019-03-19T03:59:35.182Z,99.90
2019-03-19T04:02:15.864Z,99.90
2019-03-19T04:04:54.666Z,99.90
2019-03-19T04:07:32.881Z,99.90
2019-03-19T04:10:11.137Z,99.90
2019-03-19T04:12:49.819Z,99.90
2019-03-19T04:15:26.764Z,99.90
2019-03-19T04:18:06.120Z,99.90
2019-03-19T04:20:44.119Z,99.90
2019-03-19T04:23:25.076Z,99.90
2019-03-19T04:26:12.276Z,99.90
2019-03-19T04:28:56.213Z,99.90
2019-03-19T04:31:34.212Z,99.90
2019-03-19T04:34:16.315Z,99.90
2019-03-19T04:36:58.327Z,99.90
2019-03-19T04:39:35.821Z,99.90
2019-03-19T04:42:13.942Z,99.90
2019-03-19T04:44:52.962Z,99.90
2019-03-19T04:47:36.709Z,99.90
2019-03-19T04:50:16.806Z,99.90
2019-03-19T04:52:54.276Z,99.90
2019-03-19T04:55:36.243Z,99.90
2019-03-19T04:58:16.999Z,99.90
2019-03-19T05:00:55.666Z,99.90
2019-03-19T05:03:33.424Z,99.90
2019-03-19T05:06:09.411Z,99.90
2019-03-19T05:08:46.336Z,99.90
2019-03-19T05:11:27.363Z,99.90
2019-03-19T05:14:07.396Z,99.90
2019-03-19T05:16:44.558Z,99.90
2019-03-19T05:19:25.136Z,99.90
2019-03-19T05:22:03.234Z,99.90
2019-03-19T05:24:41.078Z,99.90
2019-03-19T05:27:23.473Z,99.90
2019-03-19T05:30:02.196Z,99.90
2019-03-19T05:32:36.854Z,99.90
2019-03-19T05:35:18.343Z,99.90
2019-03-19T05:37:58.989Z,99.90
2019-03-19T05:40:50.420Z,99.90
2019-03-19T05:43:44.937Z,99.90
2019-03-19T05:46:24.121Z,99.90
2019-03-19T05:49:03.896Z,99.90
2019-03-19T05:51:39.459Z,99.90
2019-03-19T05:54:15.784Z,99.90
2019-03-19T05:56:54.097Z,99.90
2019-03-19T05:59:31.722Z,99.90
2019-03-19T06:02:09.116Z,99.90
2019-03-19T06:04:48.720Z,99.90
2019-03-19T06:07:28.097Z,99.90
2019-03-19T06:10:07.613Z,99.90
2019-03-19T06:12:46.069Z,99.90
2019-03-19T06:15:21.233Z,99.90
2019-03-19T06:17:57.712Z,99.90
2019-03-19T06:20:39.649Z,99.90
2019-03-19T06:23:19.229Z,99.90
2019-03-19T06:25:57.219Z,99.90
2019-03-19T06:28:35.862Z,99.90
2019-03-19T06:31:13.476Z,99.90
2019-03-19T06:33:53.293Z,99.90
2019-03-19T06:36:27.086Z,99.90
2019-03-19T06:39:01.112Z,99.90
2019-03-19T06:41:44.332Z,99.90
2019-03-19T06:44:18.208Z,99.90
2019-03-19T06:46:51.498Z,99.90
2019-03-19T06:49:24.314Z,99.90
2019-03-19T06:51:59.909Z,99.90
2019-03-19T06:54:35.138Z,99.90
2019-03-19T06:57:09.565Z,99.90
2019-03-19T06:59:44.068Z,99.90
2019-03-19T07:02:18.734Z,99.90
2019-03-19T07:04:53.502Z,99.90
2019-03-19T07:07:29.273Z,99.90
2019-03-19T07:10:03.882Z,99.90
2019-03-19T07:12:37.096Z,99.90
2019-03-19T07:15:16.052Z,99.90
2019-03-19T07:17:51.481Z,99.90
2019-03-19T07:20:27.988Z,99.90
2019-03-19T07:23:29.427Z,99.90
2019-03-19T07:26:06.809Z,99.90
2019-03-19T07:28:42.028Z,99.90
2019-03-19T07:31:18.297Z,99.90
2019-03-19T07:33:54.961Z,99.90
2019-03-19T07:36:32.501Z,99.90
2019-03-19T07:39:11.424Z,99.90
2019-03-19T07:41:49.301Z,99.90
2019-03-19T07:44:24.395Z,99.90
2019-03-19T07:47:01.272Z,99.90
2019-03-19T07:49:37.635Z,99.90
2019-03-19T07:52:13.575Z,99.90
2019-03-19T07:54:47.615Z,99.90
2019-03-19T07:57:22.534Z,99.90
2019-03-19T07:59:57.409Z,99.90
2019-03-19T08:02:32.743Z,99.90
2019-03-19T08:05:07.607Z,99.90
2019-03-19T08:07:50.984Z,99.90
2019-03-19T08:10:29.753Z,99.90
2019-03-19T08:13:18.645Z,99.90
2019-03-19T08:16:04.425Z,99.90
2019-03-19T08:18:46.713Z,99.90
2019-03-19T08:21:32.981Z,99.90
2019-03-19T08:24:09.140Z,99.90
2019-03-19T08:26:52.489Z,99.90
2019-03-19T08:29:35.916Z,99.90
2019-03-19T08:32:19.296Z,99.90
2019-03-19T08:35:01.872Z,99.90
2019-03-19T08:37:48.228Z,99.90
2019-03-19T08:40:31.410Z,99.90
2019-03-19T08:43:25.854Z,99.90
2019-03-19T08:46:13.669Z,99.90
2019-03-19T08:49:13.471Z,99.90
2019-03-19T08:51:56.747Z,99.90
2019-03-19T08:54:38.102Z,99.90
2019-03-19T08:57:35.978Z,99.90
2019-03-19T09:03:08.266Z,99.90
2019-03-19T09:05:45.453Z,99.90
2019-03-19T09:08:14.519Z,99.90
2019-03-19T09:10:48.010Z,99.90
2019-03-19T09:13:21.615Z,99.90
2019-03-19T09:16:12.912Z,99.90
2019-03-19T09:18:45.012Z,99.90
2019-03-19T09:21:17.139Z,99.90
2019-03-19T09:23:48.903Z,99.90
2019-03-19T09:26:20.733Z,99.90
2019-03-19T09:28:52.909Z,99.90
2019-03-19T09:31:25.193Z,99.90
2019-03-19T09:33:57.596Z,99.90
2019-03-19T09:36:29.445Z,99.90
2019-03-19T09:39:01.356Z,99.90
2019-03-19T09:41:34.488Z,99.90
2019-03-19T09:44:06.357Z,99.90
2019-03-19T09:46:38.114Z,99.90
2019-03-19T09:49:21.173Z,99.90
2019-03-19T09:51:53.317Z,99.90
2019-03-19T09:54:32.583Z,99.90
2019-03-19T09:57:04.440Z,99.90
2019-03-19T09:59:37.226Z,99.90
2019-03-19T10:02:09.543Z,99.90
2019-03-19T10:04:41.582Z,99.90
2019-03-19T10:07:13.507Z,99.90
2019-03-19T10:09:48.766Z,99.90
2019-03-19T10:12:20.984Z,99.90
2019-03-19T10:14:53.883Z,99.90
2019-03-19T10:17:25.998Z,99.90
2019-03-19T10:19:58.114Z,99.90
2019-03-19T10:22:29.922Z,99.90
2019-03-19T10:25:01.793Z,99.90
2019-03-19T10:27:33.670Z,99.90
2019-03-19T10:30:06.468Z,99.90
2019-03-19T10:32:40.159Z,99.90
2019-03-19T10:35:12.333Z,99.90
2019-03-19T10:37:44.265Z,99.90
2019-03-19T10:40:16.484Z,99.90
2019-03-19T10:42:48.219Z,99.90
2019-03-19T10:45:21.770Z,99.90
2019-03-19T10:48:02.543Z,99.90
2019-03-19T10:50:35.050Z,99.90
2019-03-19T10:53:07.030Z,99.90
2019-03-19T10:55:39.239Z,99.90
2019-03-19T10:58:14.514Z,99.90
2019-03-19T11:00:46.773Z,99.90
2019-03-19T11:03:18.605Z,99.90
2019-03-19T11:05:51.189Z,99.90
2019-03-19T11:08:22.832Z,99.90
2019-03-19T11:10:54.541Z,99.90
2019-03-19T11:13:26.238Z,99.90
2019-03-19T11:15:58.265Z,99.90
2019-03-19T11:18:30.400Z,99.90
2019-03-19T11:21:02.416Z,99.90
2019-03-19T11:23:34.165Z,99.90
2019-03-19T11:26:06.272Z,99.90
2019-03-19T11:28:41.197Z,99.90
2019-03-19T11:31:13.564Z,99.90
2019-03-19T11:33:47.625Z,99.90
2019-03-19T11:36:18.748Z,99.90
2019-03-19T11:38:50.574Z,99.90
2019-03-19T11:41:22.857Z,99.90
2019-03-19T11:43:56.064Z,99.90
2019-03-19T11:46:28.921Z,99.90
2019-03-19T11:49:01.430Z,99.90
2019-03-19T11:51:33.383Z,99.90
2019-03-19T11:54:05.431Z,99.90
2019-03-19T11:56:37.401Z,99.90
2019-03-19T11:59:09.376Z,99.90
2019-03-19T12:01:44.501Z,99.90
2019-03-19T12:04:16.641Z,99.90
2019-03-19T12:06:49.121Z,99.90
2019-03-19T12:09:21.173Z,99.90
2019-03-19T12:11:56.849Z,99.90
2019-03-19T12:14:29.530Z,99.90
2019-03-19T12:17:01.659Z,99.90
2019-03-19T12:19:35.141Z,99.90
2019-03-19T12:22:08.062Z,99.90
2019-03-19T12:24:40.039Z,99.90
2019-03-19T12:27:12.057Z,99.90
2019-03-19T12:29:44.037Z,99.90
2019-03-19T12:32:16.744Z,99.90
2019-03-19T12:34:48.599Z,99.90
2019-03-19T12:37:20.797Z,99.90
2019-03-19T12:39:53.575Z,99.90
2019-03-19T12:42:25.902Z,99.90
2019-03-19T12:44:57.659Z,99.90
2019-03-19T12:47:30.933Z,99.00
2019-03-19T12:50:03.365Z,99.60
2019-03-19T12:52:39.056Z,99.60
2019-03-19T12:55:15.279Z,99.90
2019-03-19T12:57:47.406Z,99.70
2019-03-19T13:00:32.884Z,99.30
2019-03-19T13:02:55.599Z,98.50
2019-03-19T13:05:28.468Z,98.80
2019-03-19T13:08:00.916Z,98.40
2019-03-19T13:10:33.684Z,97.20
2019-03-19T13:13:06.181Z,98.00
2019-03-19T13:15:41.862Z,97.70
2019-03-19T13:18:14.004Z,97.10
2019-03-19T13:20:53.537Z,96.30
2019-03-19T13:23:27.054Z,96.40
2019-03-19T13:26:00.901Z,95.50
2019-03-19T13:28:52.373Z,95.60
2019-03-19T13:31:24.512Z,95.60
2019-03-19T13:33:56.502Z,95.70
2019-03-19T13:36:28.597Z,95.20
2019-03-19T13:39:01.491Z,96.10
2019-03-19T13:41:36.572Z,95.70
2019-03-19T13:44:11.341Z,95.70
2019-03-19T13:46:44.186Z,95.00
2019-03-19T13:49:21.378Z,95.40
2019-03-19T13:51:54.531Z,95.90
2019-03-19T13:54:26.942Z,95.90
2019-03-19T13:56:58.974Z,96.30
2019-03-19T13:59:38.546Z,95.90
2019-03-19T14:02:10.408Z,97.30
2019-03-19T14:04:42.383Z,96.20
2019-03-19T14:07:14.433Z,95.40
2019-03-19T14:12:38.255Z,95.10
2019-03-19T14:15:12.572Z,95.10
2019-03-19T14:17:44.403Z,95.60
2019-03-19T14:20:17.750Z,95.80
2019-03-19T14:22:49.955Z,96.50
2019-03-19T14:25:23.587Z,96.60
2019-03-19T14:27:55.760Z,95.50
2019-03-19T14:30:28.033Z,95.90
2019-03-19T14:33:00.455Z,96.70
2019-03-19T14:35:37.203Z,97.00
2019-03-19T14:38:06.548Z,97.20
2019-03-19T14:40:39.962Z,96.90
2019-03-19T14:43:11.773Z,96.40
2019-03-19T14:45:44.152Z,96.00
2019-03-19T14:48:16.086Z,96.00
2019-03-19T14:50:47.887Z,96.50
2019-03-19T14:53:20.200Z,97.20
2019-03-19T14:55:54.493Z,97.30
2019-03-19T14:58:25.764Z,97.50
2019-03-19T15:00:57.676Z,97.80
2019-03-19T15:03:30.139Z,97.50
2019-03-19T15:06:04.786Z,97.40
2019-03-19T15:08:37.170Z,97.60
2019-03-19T15:11:09.961Z,97.60
2019-03-19T15:13:42.086Z,98.10
2019-03-19T15:16:14.938Z,98.10
2019-03-19T15:18:47.251Z,98.10
2019-03-19T15:21:19.051Z,97.70
2019-03-19T15:23:51.294Z,97.60
2019-03-19T15:26:23.555Z,97.20
2019-03-19T15:28:55.310Z,97.50
2019-03-19T15:31:30.008Z,97.70
2019-03-19T15:34:00.960Z,97.90
2019-03-19T15:36:34.141Z,97.90
2019-03-19T15:39:09.298Z,98.30
2019-03-19T15:41:41.403Z,98.10
2019-03-19T15:44:13.481Z,98.10
2019-03-19T15:46:46.622Z,98.50
2019-03-19T15:49:19.250Z,98.50
2019-03-19T15:51:51.168Z,98.70
2019-03-19T15:54:26.547Z,98.80
2019-03-19T15:56:59.334Z,99.00
2019-03-19T15:59:31.798Z,99.00
2019-03-19T16:02:03.984Z,99.00
2019-03-19T16:04:36.360Z,99.30
2019-03-19T16:07:08.394Z,98.80
2019-03-19T16:09:41.002Z,99.00
2019-03-19T16:12:13.087Z,99.00
2019-03-19T16:14:44.808Z,99.10
2019-03-19T16:17:16.963Z,99.60
2019-03-19T16:19:48.783Z,99.90
2019-03-19T16:22:20.915Z,99.90
2019-03-19T16:24:53.503Z,99.90
2019-03-19T16:27:31.456Z,99.90
2019-03-19T16:30:03.341Z,99.90
2019-03-19T16:32:39.110Z,99.90
2019-03-19T16:35:11.782Z,99.90
2019-03-19T16:37:46.716Z,99.90
2019-03-19T16:40:19.852Z,99.90
2019-03-19T16:43:03.748Z,99.90
2019-03-19T16:45:35.643Z,99.90
2019-03-19T16:48:13.996Z,99.90
2019-03-19T16:50:45.981Z,99.90
2019-03-19T16:53:20.605Z,99.90
2019-03-19T16:55:53.514Z,99.90
2019-03-19T16:58:31.842Z,99.90
2019-03-19T17:01:04.053Z,99.90
2019-03-19T17:03:38.997Z,99.90
2019-03-19T17:06:11.108Z,99.90
2019-03-19T17:08:53.603Z,99.90
2019-03-19T17:11:25.450Z,99.90
2019-03-19T17:14:00.405Z,99.90
2019-03-19T17:16:32.463Z,99.90
2019-03-19T17:19:08.962Z,99.90
2019-03-19T17:21:40.964Z,99.90
2019-03-19T17:24:19.035Z,99.90
2019-03-19T17:26:51.262Z,99.90
2019-03-19T17:29:33.762Z,99.90
2019-03-19T17:32:12.721Z,99.90
2019-03-19T17:34:45.455Z,99.90
2019-03-19T17:37:17.550Z,99.90
2019-03-19T17:39:52.710Z,99.90
2019-03-19T17:42:24.708Z,99.90
2019-03-19T17:45:07.181Z,99.90
2019-03-19T17:47:39.379Z,99.90
2019-03-19T17:50:17.610Z,99.90
2019-03-19T17:52:50.501Z,99.90
2019-03-19T17:55:23.005Z,99.90
2019-03-19T17:57:55.166Z,99.90
2019-03-19T18:00:45.116Z,99.90
2019-03-19T18:03:17.532Z,99.90
2019-03-19T18:05:49.328Z,99.90
2019-03-19T18:08:21.562Z,99.90
2019-03-19T18:10:54.208Z,99.90
2019-03-19T18:13:25.976Z,99.90
2019-03-19T18:16:09.024Z,99.90
2019-03-19T18:18:42.263Z,99.90
2019-03-19T18:21:20.533Z,99.90
2019-03-19T18:23:55.445Z,99.90
2019-03-19T18:26:30.891Z,99.90
2019-03-19T18:29:04.235Z,99.90
2019-03-19T18:31:40.059Z,99.90
2019-03-19T18:34:12.377Z,99.90
2019-03-19T18:36:52.085Z,99.90
2019-03-19T18:39:25.293Z,99.90
2019-03-19T18:42:00.785Z,99.90
2019-03-19T18:44:33.060Z,99.90
2019-03-19T18:47:08.069Z,99.90
2019-03-19T18:49:39.777Z,99.90
2019-03-19T18:52:17.903Z,99.90
2019-03-19T18:54:49.781Z,99.90
2019-03-19T18:57:35.578Z,99.90
2019-03-19T19:00:13.418Z,99.90
2019-03-19T19:02:50.369Z,99.90
2019-03-19T19:05:22.665Z,99.90
2019-03-19T19:08:04.016Z,99.90
2019-03-19T19:10:36.123Z,99.90
2019-03-19T19:13:09.273Z,99.90
2019-03-19T19:15:41.139Z,99.90
2019-03-19T19:18:18.454Z,99.90
2019-03-19T19:20:51.929Z,99.90
2019-03-19T19:23:24.700Z,99.90
2019-03-19T19:25:58.250Z,99.90
2019-03-19T19:28:30.285Z,99.90
2019-03-19T19:31:02.481Z,99.90
2019-03-19T19:33:39.964Z,99.90
2019-03-19T19:36:12.430Z,99.90
2019-03-19T19:38:56.465Z,99.90
2019-03-19T19:41:28.538Z,99.90
2019-03-19T19:44:03.871Z,99.90
2019-03-19T19:46:36.130Z,99.90
2019-03-19T19:49:12.825Z,99.90
2019-03-19T19:51:45.109Z,99.90
2019-03-19T19:54:23.961Z,99.90
2019-03-19T19:56:56.405Z,99.90
2019-03-19T19:59:33.895Z,99.90
2019-03-19T20:02:05.826Z,99.90
2019-03-19T20:04:41.376Z,99.90
2019-03-19T20:07:13.363Z,99.90
2019-03-19T20:09:58.842Z,99.90
2019-03-19T20:12:30.811Z,99.90
2019-03-19T20:15:06.449Z,99.90
2019-03-19T20:17:40.015Z,99.90
2019-03-19T20:20:15.092Z,99.90
2019-03-19T20:22:47.434Z,99.90
2019-03-19T20:25:24.274Z,99.90
2019-03-19T20:27:57.554Z,99.90
2019-03-19T20:30:38.677Z,99.90
2019-03-19T20:33:11.329Z,99.90
2019-03-19T20:35:50.790Z,99.90
2019-03-19T20:38:23.262Z,99.90
2019-03-19T20:40:55.987Z,99.90
2019-03-19T20:43:28.498Z,99.90
2019-03-19T20:46:10.787Z,99.90
2019-03-19T20:48:43.485Z,99.90
2019-03-19T20:51:18.796Z,99.90
2019-03-19T20:53:51.205Z,99.90
2019-03-19T20:56:27.083Z,99.90
2019-03-19T20:58:59.258Z,99.90
2019-03-19T21:01:37.486Z,99.90
2019-03-19T21:04:10.806Z,99.90
2019-03-19T21:06:46.423Z,99.90
2019-03-19T21:09:19.008Z,99.90
2019-03-19T21:11:55.379Z,99.90
2019-03-19T21:14:27.631Z,99.90
2019-03-19T21:17:07.644Z,99.90
2019-03-19T21:19:40.311Z,99.90
2019-03-19T21:22:18.936Z,99.90
2019-03-19T21:24:51.007Z,99.90
2019-03-19T21:27:29.762Z,99.90
2019-03-19T21:30:01.611Z,99.90
2019-03-19T21:32:40.447Z,99.90
2019-03-19T21:35:14.752Z,99.90
2019-03-19T21:37:52.819Z,99.90
2019-03-19T21:40:24.999Z,99.90
2019-03-19T21:43:00.244Z,99.90
2019-03-19T21:45:33.423Z,99.90
2019-03-19T21:48:15.252Z,99.90
2019-03-19T21:50:49.031Z,99.90
2019-03-19T21:53:22.130Z,99.90
2019-03-19T21:55:55.252Z,99.90
2019-03-19T21:58:32.855Z,99.90
2019-03-19T22:01:05.636Z,99.90
2019-03-19T22:03:40.962Z,99.90
2019-03-19T22:06:12.906Z,99.90
2019-03-19T22:08:51.243Z,99.90
2019-03-19T22:11:23.400Z,99.90
2019-03-19T22:14:01.893Z,99.90
2019-03-19T22:16:35.190Z,99.90
2019-03-19T22:19:10.804Z,99.90
2019-03-19T22:21:42.793Z,99.90
2019-03-19T22:24:26.813Z,99.90
2019-03-19T22:26:59.539Z,99.90
2019-03-19T22:29:38.840Z,99.90
2019-03-19T22:32:11.062Z,99.90
2019-03-19T22:34:45.935Z,99.90
2019-03-19T22:37:17.848Z,99.90
2019-03-19T22:39:55.181Z,99.90
2019-03-19T22:42:28.725Z,99.90
2019-03-19T22:45:04.742Z,99.90
2019-03-19T22:47:37.452Z,99.90
2019-03-19T22:50:14.444Z,99.90
2019-03-19T22:52:48.240Z,99.90
2019-03-19T22:55:29.499Z,99.90
2019-03-19T22:58:01.788Z,99.90
2019-03-19T23:00:43.481Z,99.90
2019-03-19T23:03:15.489Z,99.90
2019-03-19T23:05:47.797Z,99.90
2019-03-19T23:08:20.411Z,99.90
2019-03-19T23:10:52.177Z,99.90
2019-03-19T23:13:24.461Z,99.90
2019-03-19T23:15:56.401Z,99.90
2019-03-19T23:18:28.169Z,99.90
2019-03-19T23:20:59.905Z,99.90
2019-03-19T23:23:31.455Z,99.90
2019-03-19T23:26:03.550Z,99.90
2019-03-19T23:28:35.466Z,99.90
2019-03-19T23:31:07.344Z,99.90
2019-03-19T23:33:39.060Z,99.90
2019-03-19T23:36:10.735Z,99.90
2019-03-19T23:38:43.514Z,99.90
2019-03-19T23:41:15.238Z,99.90
2019-03-19T23:43:46.902Z,99.90
2019-03-19T23:46:18.446Z,99.90
2019-03-19T23:48:58.696Z,99.90
2019-03-19T23:51:30.438Z,99.90
2019-03-19T23:54:09.784Z,99.90
2019-03-19T23:56:41.491Z,99.90
2019-03-19T23:59:19.137Z,99.90
